Time;durP1;ratioP1;P1;durP2;ratioP2;P2;SDS_P1;SDS_P2;PMS_P1;PMS_P2;Temp;Humidity;BMP_temperature;BMP_pressure;BME280_temperature;BME280_humidity;BME280_pressure;Samples;Min_cycle;Max_cycle;Signal;HPM_P1;HPM_P2
2024/02/18 00:01:17;;;;;;;46.10;25.63;;;;;;;;;;5025476;28;20205;-76
2024/02/18 00:03:43;;;;;;;39.55;24.75;;;;;;;;;;5022440;28;20185;-76
2024/02/18 00:06:08;;;;;;;38.03;23.80;;;;;;;;;;5025009;28;20191;-76
2024/02/18 00:08:34;;;;;;;35.17;23.67;;;;;;;;;;5041890;28;20205;-77
2024/02/18 00:10:59;;;;;;;38.97;24.27;;;;;;;;;;5044267;28;20197;-76
2024/02/18 00:13:25;;;;;;;33.42;22.30;;;;;;;;;;5030238;28;20201;-75
2024/02/18 00:15:50;;;;;;;42.00;23.52;;;;;;;;;;5028121;28;20190;-77
2024/02/18 00:18:16;;;;;;;39.25;22.20;;;;;;;;;;5041453;28;20225;-76
2024/02/18 00:20:41;;;;;;;34.70;21.60;;;;;;;;;;5041217;28;20211;-77
2024/02/18 00:23:06;;;;;;;32.95;20.50;;;;;;;;;;5030471;28;20190;-76
2024/02/18 00:25:32;;;;;;;34.28;20.02;;;;;;;;;;5033275;28;20190;-76
2024/02/18 00:27:57;;;;;;;28.90;19.35;;;;;;;;;;5015328;28;20739;-76
2024/02/18 00:30:24;;;;;;;35.92;21.15;;;;;;;;;;5043662;28;20236;-76
2024/02/18 00:32:50;;;;;;;37.45;18.80;;;;;;;;;;5037915;28;20614;-76
2024/02/18 00:35:15;;;;;;;30.17;18.95;;;;;;;;;;5026946;28;20190;-76
2024/02/18 00:37:41;;;;;;;36.05;18.80;;;;;;;;;;5030728;28;20286;-76
2024/02/18 00:40:08;;;;;;;26.40;17.88;;;;;;;;;;5023155;28;20452;-77
2024/02/18 00:42:33;;;;;;;32.15;17.17;;;;;;;;;;5015683;28;20190;-77
2024/02/18 00:44:59;;;;;;;33.05;17.70;;;;;;;;;;5009333;28;20178;-76
2024/02/18 00:47:24;;;;;;;38.08;17.98;;;;;;;;;;5021897;28;20567;-76
2024/02/18 00:49:49;;;;;;;33.42;16.85;;;;;;;;;;5030788;28;20262;-77
2024/02/18 00:52:15;;;;;;;33.15;17.30;;;;;;;;;;5032620;28;20186;-76
2024/02/18 00:54:40;;;;;;;30.85;16.65;;;;;;;;;;5033302;28;20183;-76
2024/02/18 00:57:06;;;;;;;31.08;16.95;;;;;;;;;;5032095;28;20603;-76
2024/02/18 00:59:31;;;;;;;30.50;16.55;;;;;;;;;;5021337;28;20209;-76
2024/02/18 01:01:57;;;;;;;24.65;15.15;;;;;;;;;;5030804;28;20232;-77
2024/02/18 01:04:22;;;;;;;27.77;16.52;;;;;;;;;;5042547;28;20250;-76
2024/02/18 01:06:48;;;;;;;27.67;15.95;;;;;;;;;;5029357;28;20209;-76
2024/02/18 01:09:13;;;;;;;26.80;15.43;;;;;;;;;;5035007;28;20195;-76
2024/02/18 01:11:39;;;;;;;23.45;15.02;;;;;;;;;;5043498;28;20209;-77
2024/02/18 01:14:04;;;;;;;26.30;15.23;;;;;;;;;;5043332;28;20254;-77
2024/02/18 01:16:29;;;;;;;27.15;15.38;;;;;;;;;;5044323;28;20186;-76
2024/02/18 01:18:55;;;;;;;24.83;14.60;;;;;;;;;;5036767;28;20238;-76
2024/02/18 01:21:20;;;;;;;22.38;13.27;;;;;;;;;;5046766;28;20268;-76
2024/02/18 01:23:46;;;;;;;30.88;14.35;;;;;;;;;;5049907;28;20264;-76
2024/02/18 01:26:11;;;;;;;21.55;12.98;;;;;;;;;;5043543;28;20223;-76
2024/02/18 01:28:36;;;;;;;24.92;13.38;;;;;;;;;;5027384;28;20212;-76
2024/02/18 01:31:02;;;;;;;22.95;13.07;;;;;;;;;;5034558;28;20554;-76
2024/02/18 01:33:29;;;;;;;26.30;12.80;;;;;;;;;;5028480;28;20186;-77
2024/02/18 01:35:54;;;;;;;21.67;12.93;;;;;;;;;;5040005;28;20426;-76
2024/02/18 01:38:20;;;;;;;24.95;13.15;;;;;;;;;;5034777;28;20185;-76
2024/02/18 01:40:46;;;;;;;19.10;12.23;;;;;;;;;;5016492;28;20566;-77
2024/02/18 01:43:13;;;;;;;19.95;11.93;;;;;;;;;;5025677;28;20194;-76
2024/02/18 01:45:38;;;;;;;21.42;12.02;;;;;;;;;;5033442;28;20181;-77
2024/02/18 01:48:05;;;;;;;25.98;12.45;;;;;;;;;;5039021;28;20209;-76
2024/02/18 01:50:31;;;;;;;23.85;12.90;;;;;;;;;;5032803;28;20219;-78
2024/02/18 01:52:56;;;;;;;25.35;12.52;;;;;;;;;;5041866;28;20242;-76
2024/02/18 01:55:24;;;;;;;24.23;12.55;;;;;;;;;;5034665;28;20525;-77
2024/02/18 01:57:50;;;;;;;17.90;11.68;;;;;;;;;;5032957;28;20251;-76
2024/02/18 02:00:19;;;;;;;23.60;11.82;;;;;;;;;;5041249;28;20225;-76
2024/02/18 02:02:48;;;;;;;20.70;12.02;;;;;;;;;;5021939;28;20189;-77
2024/02/18 02:05:17;;;;;;;26.23;12.38;;;;;;;;;;5037075;28;20265;-76
2024/02/18 02:07:43;;;;;;;24.15;11.70;;;;;;;;;;5050207;28;20242;-77
2024/02/18 02:10:11;;;;;;;20.30;11.65;;;;;;;;;;5047446;28;20276;-76
2024/02/18 02:12:44;;;;;;;24.23;10.80;;;;;;;;;;5019741;28;20208;-76
2024/02/18 02:15:10;;;;;;;22.27;12.15;;;;;;;;;;5042417;28;20216;-76
2024/02/18 02:17:39;;;;;;;24.25;12.25;;;;;;;;;;5033387;28;20283;-76
2024/02/18 02:20:10;;;;;;;19.67;11.38;;;;;;;;;;5036797;28;20216;-76
2024/02/18 02:22:36;;;;;;;15.82;11.30;;;;;;;;;;5004481;28;20235;-76
2024/02/18 02:25:02;;;;;;;20.05;11.85;;;;;;;;;;5013980;28;20212;-76
2024/02/18 02:27:36;;;;;;;20.10;10.77;;;;;;;;;;5011129;28;20667;-76
2024/02/18 02:30:05;;;;;;;21.85;11.32;;;;;;;;;;5030191;28;20197;-77
2024/02/18 02:32:31;;;;;;;19.25;10.88;;;;;;;;;;5027602;28;20321;-77
2024/02/18 02:34:58;;;;;;;14.90;10.27;;;;;;;;;;5038016;28;20186;-77
2024/02/18 02:37:24;;;;;;;16.98;10.32;;;;;;;;;;5034050;28;20190;-77
2024/02/18 02:39:50;;;;;;;27.75;10.70;;;;;;;;;;5032378;28;20676;-77
2024/02/18 02:42:17;;;;;;;17.50;9.50;;;;;;;;;;5027629;28;20191;-76
2024/02/18 02:44:42;;;;;;;19.67;10.13;;;;;;;;;;5044311;28;20182;-77
2024/02/18 02:47:08;;;;;;;19.70;9.73;;;;;;;;;;5037832;28;20283;-77
2024/02/18 02:49:33;;;;;;;16.00;8.80;;;;;;;;;;5040385;28;20189;-77
2024/02/18 02:51:59;;;;;;;16.35;9.18;;;;;;;;;;5026860;28;20191;-77
2024/02/18 02:54:24;;;;;;;21.08;9.55;;;;;;;;;;5034062;28;20565;-76
2024/02/18 02:56:50;;;;;;;16.77;8.85;;;;;;;;;;5035322;28;20559;-77
2024/02/18 02:59:15;;;;;;;16.50;9.20;;;;;;;;;;5037679;28;20575;-77
2024/02/18 03:01:41;;;;;;;15.65;9.18;;;;;;;;;;5041941;28;20235;-77
2024/02/18 03:04:06;;;;;;;20.08;8.98;;;;;;;;;;5045102;28;20189;-77
2024/02/18 03:06:32;;;;;;;19.35;9.38;;;;;;;;;;5036072;28;20288;-77
2024/02/18 03:08:57;;;;;;;14.77;8.40;;;;;;;;;;5022834;28;20193;-76
2024/02/18 03:11:23;;;;;;;17.33;8.73;;;;;;;;;;5036692;28;20181;-77
2024/02/18 03:13:48;;;;;;;21.10;8.73;;;;;;;;;;5031410;28;20194;-78
2024/02/18 03:16:14;;;;;;;18.98;9.32;;;;;;;;;;5025955;28;20194;-76
2024/02/18 03:18:40;;;;;;;12.40;7.68;;;;;;;;;;5037391;28;20233;-77
2024/02/18 03:21:06;;;;;;;17.38;7.97;;;;;;;;;;5034842;28;20208;-77
2024/02/18 03:23:32;;;;;;;16.05;7.47;;;;;;;;;;5041529;28;20186;-78
2024/02/18 03:25:58;;;;;;;12.57;7.43;;;;;;;;;;5030160;28;20189;-77
2024/02/18 03:28:25;;;;;;;14.13;7.10;;;;;;;;;;5033810;28;20216;-77
2024/02/18 03:30:51;;;;;;;15.50;7.15;;;;;;;;;;5038179;28;20210;-77
2024/02/18 03:33:18;;;;;;;14.68;6.75;;;;;;;;;;5032295;28;20193;-77
2024/02/18 03:35:44;;;;;;;15.38;7.28;;;;;;;;;;5024637;28;20258;-78
2024/02/18 03:38:09;;;;;;;12.18;7.20;;;;;;;;;;5032427;28;20281;-78
2024/02/18 03:40:35;;;;;;;16.67;7.78;;;;;;;;;;5035723;28;20237;-77
2024/02/18 03:43:01;;;;;;;12.43;6.70;;;;;;;;;;5037106;28;20280;-77
2024/02/18 03:45:27;;;;;;;11.93;6.63;;;;;;;;;;5044844;28;20272;-77
2024/02/18 03:47:52;;;;;;;11.98;6.60;;;;;;;;;;5035358;28;20301;-77
2024/02/18 03:50:18;;;;;;;13.75;6.50;;;;;;;;;;5015047;28;20858;-78
2024/02/18 03:52:43;;;;;;;13.70;6.60;;;;;;;;;;5000872;28;20186;-77
2024/02/18 03:55:13;;;;;;;14.80;6.53;;;;;;;;;;5029365;28;20202;-77
2024/02/18 03:57:40;;;;;;;12.77;6.30;;;;;;;;;;5024184;28;20214;-78
2024/02/18 04:00:07;;;;;;;14.93;7.05;;;;;;;;;;5028015;28;20215;-77
2024/02/18 04:02:35;;;;;;;13.70;6.18;;;;;;;;;;5039616;28;20537;-77
2024/02/18 04:05:01;;;;;;;14.60;6.20;;;;;;;;;;5046416;28;20177;-77
2024/02/18 04:07:26;;;;;;;8.95;5.70;;;;;;;;;;5024662;28;20301;-77
2024/02/18 04:09:51;;;;;;;10.15;5.78;;;;;;;;;;5038179;28;20196;-77
2024/02/18 04:12:17;;;;;;;16.85;6.20;;;;;;;;;;5036139;28;20178;-77
2024/02/18 04:14:42;;;;;;;10.85;5.95;;;;;;;;;;5042503;28;20196;-77
2024/02/18 04:17:08;;;;;;;9.18;6.15;;;;;;;;;;5046463;28;20204;-77
2024/02/18 04:19:33;;;;;;;13.18;6.40;;;;;;;;;;5043712;28;20233;-78
2024/02/18 04:21:59;;;;;;;16.00;6.68;;;;;;;;;;5034457;28;20661;-78
2024/02/18 04:24:24;;;;;;;16.50;5.80;;;;;;;;;;5050887;28;20567;-77
2024/02/18 04:26:50;;;;;;;10.25;4.95;;;;;;;;;;5043635;28;20589;-77
2024/02/18 04:29:15;;;;;;;13.57;5.35;;;;;;;;;;5042221;28;20252;-78
2024/02/18 04:31:41;;;;;;;11.48;4.97;;;;;;;;;;5041674;28;20201;-77
2024/02/18 04:34:06;;;;;;;13.32;5.18;;;;;;;;;;5031236;28;20181;-77
2024/02/18 04:36:32;;;;;;;12.02;5.10;;;;;;;;;;5019227;28;20210;-77
2024/02/18 04:38:57;;;;;;;11.68;5.60;;;;;;;;;;5050827;28;20201;-78
2024/02/18 04:41:23;;;;;;;9.55;5.25;;;;;;;;;;5035357;28;20186;-77
2024/02/18 04:43:48;;;;;;;9.55;5.10;;;;;;;;;;5036156;28;20213;-78
2024/02/18 04:46:14;;;;;;;13.48;4.68;;;;;;;;;;5045840;28;20266;-77
2024/02/18 04:48:39;;;;;;;12.30;5.53;;;;;;;;;;5038716;28;20193;-77
2024/02/18 04:51:05;;;;;;;13.98;5.03;;;;;;;;;;5038032;28;20182;-78
2024/02/18 04:53:30;;;;;;;10.93;4.90;;;;;;;;;;5047332;28;20181;-78
2024/02/18 04:55:56;;;;;;;13.30;4.78;;;;;;;;;;5023495;28;20243;-77
2024/02/18 04:58:23;;;;;;;9.85;4.22;;;;;;;;;;5041524;28;20182;-79
2024/02/18 05:00:48;;;;;;;11.73;4.10;;;;;;;;;;5036635;28;20280;-77
2024/02/18 05:03:14;;;;;;;14.70;4.43;;;;;;;;;;5035359;28;20221;-77
2024/02/18 05:05:39;;;;;;;13.80;4.43;;;;;;;;;;5029373;28;20181;-77
2024/02/18 05:08:05;;;;;;;8.60;4.00;;;;;;;;;;5025871;28;20292;-78
2024/02/18 05:10:30;;;;;;;7.68;4.47;;;;;;;;;;5035571;28;20232;-77
2024/02/18 05:12:56;;;;;;;9.05;3.92;;;;;;;;;;5045281;28;20335;-77
2024/02/18 05:15:22;;;;;;;8.90;4.13;;;;;;;;;;5045511;28;20193;-77
2024/02/18 05:17:47;;;;;;;9.52;4.00;;;;;;;;;;5039373;28;20237;-77
2024/02/18 05:20:14;;;;;;;6.47;4.18;;;;;;;;;;5040545;28;20213;-77
2024/02/18 05:22:40;;;;;;;7.82;3.97;;;;;;;;;;5022556;28;20179;-77
2024/02/18 05:25:06;;;;;;;7.70;4.07;;;;;;;;;;5033777;28;20243;-78
2024/02/18 05:27:32;;;;;;;8.52;4.18;;;;;;;;;;5034032;28;21420;-77
2024/02/18 05:29:58;;;;;;;15.40;4.43;;;;;;;;;;5049757;28;20667;-78
2024/02/18 05:32:24;;;;;;;6.88;3.78;;;;;;;;;;5041925;28;20206;-77
2024/02/18 05:34:49;;;;;;;9.18;3.92;;;;;;;;;;5021907;28;20359;-78
2024/02/18 05:37:15;;;;;;;12.25;4.57;;;;;;;;;;5045136;28;20304;-78
2024/02/18 05:39:40;;;;;;;6.97;4.05;;;;;;;;;;5041464;28;20292;-80
2024/02/18 05:42:08;;;;;;;8.02;4.18;;;;;;;;;;5029159;28;20211;-77
2024/02/18 05:44:34;;;;;;;10.48;4.80;;;;;;;;;;5001553;28;20182;-78
2024/02/18 05:46:59;;;;;;;15.13;4.50;;;;;;;;;;5017622;28;20247;-78
2024/02/18 05:49:25;;;;;;;9.20;4.30;;;;;;;;;;5040240;28;20306;-79
2024/02/18 05:51:53;;;;;;;8.82;4.95;;;;;;;;;;5008697;28;20657;-79
2024/02/18 05:54:23;;;;;;;11.48;4.80;;;;;;;;;;5024252;28;20268;-77
2024/02/18 05:56:49;;;;;;;7.70;4.35;;;;;;;;;;5021539;28;20272;-78
2024/02/18 05:59:14;;;;;;;11.00;4.88;;;;;;;;;;5035500;28;20277;-80
2024/02/18 06:01:40;;;;;;;10.23;4.97;;;;;;;;;;5032911;28;20679;-79
2024/02/18 06:04:05;;;;;;;12.90;5.32;;;;;;;;;;5044967;28;20246;-80
2024/02/18 06:06:32;;;;;;;16.50;5.20;;;;;;;;;;5016397;28;20202;-78
2024/02/18 06:08:57;;;;;;;12.27;5.22;;;;;;;;;;5044183;28;20221;-79
2024/02/18 06:11:22;;;;;;;11.75;4.55;;;;;;;;;;5033503;28;20529;-79
2024/02/18 06:13:48;;;;;;;13.05;5.07;;;;;;;;;;5035898;28;20273;-77
2024/02/18 06:16:14;;;;;;;16.70;5.05;;;;;;;;;;5034730;28;20273;-78
2024/02/18 06:18:40;;;;;;;9.77;4.53;;;;;;;;;;5035241;28;20268;-79
2024/02/18 06:21:05;;;;;;;16.35;5.45;;;;;;;;;;5034871;28;20897;-79
2024/02/18 06:23:31;;;;;;;9.95;4.65;;;;;;;;;;5034872;28;20689;-80
2024/02/18 06:25:56;;;;;;;14.60;4.85;;;;;;;;;;5021990;28;20252;-81
2024/02/18 06:28:22;;;;;;;15.27;5.55;;;;;;;;;;5031815;28;20638;-80
2024/02/18 06:30:48;;;;;;;10.65;5.32;;;;;;;;;;5038123;28;20194;-80
2024/02/18 06:33:15;;;;;;;11.88;5.50;;;;;;;;;;5041659;28;20193;-81
2024/02/18 06:35:42;;;;;;;8.50;4.97;;;;;;;;;;5035028;28;20190;-81
2024/02/18 06:38:08;;;;;;;11.68;5.88;;;;;;;;;;5014195;28;20668;-80
2024/02/18 06:40:33;;;;;;;17.38;5.93;;;;;;;;;;5038362;28;20183;-80
2024/02/18 06:42:59;;;;;;;13.75;5.85;;;;;;;;;;5032900;28;20201;-78
2024/02/18 06:45:24;;;;;;;12.85;5.78;;;;;;;;;;5036696;28;20268;-79
2024/02/18 06:47:49;;;;;;;9.60;5.50;;;;;;;;;;5048215;28;20730;-78
2024/02/18 06:50:15;;;;;;;10.27;6.00;;;;;;;;;;5018006;28;20655;-79
2024/02/18 06:52:41;;;;;;;16.65;6.28;;;;;;;;;;5024583;28;20248;-78
2024/02/18 06:55:07;;;;;;;10.98;6.30;;;;;;;;;;5044743;28;20185;-78
2024/02/18 06:57:32;;;;;;;13.50;6.00;;;;;;;;;;5038140;28;20182;-78
2024/02/18 06:59:58;;;;;;;11.40;5.88;;;;;;;;;;5032193;28;20654;-78
2024/02/18 07:02:23;;;;;;;15.48;6.07;;;;;;;;;;5019763;28;20190;-79
2024/02/18 07:04:49;;;;;;;16.67;6.53;;;;;;;;;;5013955;28;20217;-78
2024/02/18 07:07:15;;;;;;;10.98;5.65;;;;;;;;;;5036487;28;20342;-77
2024/02/18 07:09:42;;;;;;;13.98;6.07;;;;;;;;;;5038914;28;20604;-79
2024/02/18 07:12:08;;;;;;;12.85;6.40;;;;;;;;;;5040212;28;20194;-79
2024/02/18 07:14:33;;;;;;;13.38;6.07;;;;;;;;;;5019273;28;20177;-79
2024/02/18 07:16:59;;;;;;;12.63;6.40;;;;;;;;;;5040369;28;20687;-80
2024/02/18 07:19:25;;;;;;;16.58;6.15;;;;;;;;;;5038136;28;20230;-80
2024/02/18 07:21:51;;;;;;;13.93;6.13;;;;;;;;;;5025469;28;20186;-81
2024/02/18 07:24:17;;;;;;;12.50;5.85;;;;;;;;;;5040176;28;20196;-81
2024/02/18 07:26:43;;;;;;;12.48;6.57;;;;;;;;;;5034965;28;20585;-80
2024/02/18 07:29:08;;;;;;;14.27;6.25;;;;;;;;;;5036127;28;20668;-80
2024/02/18 07:31:36;;;;;;;12.30;6.03;;;;;;;;;;5033261;28;20201;-81
2024/02/18 07:34:03;;;;;;;20.25;6.53;;;;;;;;;;5045484;28;20193;-80
2024/02/18 07:36:28;;;;;;;12.45;5.68;;;;;;;;;;5047711;28;20189;-81
2024/02/18 07:38:54;;;;;;;13.55;6.00;;;;;;;;;;5046227;28;20563;-81
2024/02/18 07:41:19;;;;;;;13.35;5.28;;;;;;;;;;5034504;28;20217;-82
2024/02/18 07:43:45;;;;;;;10.43;5.90;;;;;;;;;;5035400;28;20186;-79
2024/02/18 07:46:12;;;;;;;14.65;6.00;;;;;;;;;;5036612;28;20653;-80
2024/02/18 07:48:37;;;;;;;11.48;5.57;;;;;;;;;;5036407;28;20213;-82
2024/02/18 07:51:03;;;;;;;11.52;4.68;;;;;;;;;;5055132;28;20276;-80
2024/02/18 07:53:28;;;;;;;10.32;5.22;;;;;;;;;;5046394;28;20194;-79
2024/02/18 07:55:54;;;;;;;9.93;4.72;;;;;;;;;;5034752;28;20190;-79
2024/02/18 07:58:20;;;;;;;11.40;4.85;;;;;;;;;;5008672;28;20185;-83
2024/02/18 08:00:46;;;;;;;11.38;4.40;;;;;;;;;;5051688;28;20185;-82
2024/02/18 08:03:11;;;;;;;11.07;4.80;;;;;;;;;;5041303;28;20543;-79
2024/02/18 08:05:37;;;;;;;17.02;4.95;;;;;;;;;;5032215;28;20190;-81
2024/02/18 08:08:02;;;;;;;11.82;5.18;;;;;;;;;;5025834;28;20213;-81
2024/02/18 08:10:28;;;;;;;12.55;4.93;;;;;;;;;;5036125;28;20288;-81
2024/02/18 08:12:54;;;;;;;10.73;4.47;;;;;;;;;;5033177;28;20190;-80
2024/02/18 08:15:19;;;;;;;12.38;4.28;;;;;;;;;;5035153;28;20611;-79
2024/02/18 08:17:45;;;;;;;10.73;4.43;;;;;;;;;;5014178;28;20710;-82
2024/02/18 08:20:10;;;;;;;13.52;4.60;;;;;;;;;;5035073;28;20472;-78
2024/02/18 08:22:36;;;;;;;10.13;4.60;;;;;;;;;;5026976;28;20189;-80
2024/02/18 08:25:02;;;;;;;9.80;4.32;;;;;;;;;;5037116;28;20194;-79
2024/02/18 08:27:28;;;;;;;10.70;4.25;;;;;;;;;;5031265;28;20206;-80
2024/02/18 08:29:54;;;;;;;9.55;4.80;;;;;;;;;;5031841;28;20240;-81
2024/02/18 08:32:19;;;;;;;11.60;4.22;;;;;;;;;;5038107;28;20202;-80
2024/02/18 08:34:45;;;;;;;11.00;4.30;;;;;;;;;;5033289;28;20268;-82
2024/02/18 08:37:10;;;;;;;6.18;4.13;;;;;;;;;;5042775;28;20281;-81
2024/02/18 08:39:35;;;;;;;10.05;4.28;;;;;;;;;;5039587;28;20591;-82
2024/02/18 08:42:01;;;;;;;12.23;4.38;;;;;;;;;;5033655;28;20190;-82
2024/02/18 08:44:26;;;;;;;9.13;4.35;;;;;;;;;;5033900;28;20696;-82
2024/02/18 08:46:52;;;;;;;10.00;4.90;;;;;;;;;;5022298;28;20214;-80
2024/02/18 08:49:17;;;;;;;12.48;4.57;;;;;;;;;;5047937;28;20200;-80
2024/02/18 08:51:43;;;;;;;15.18;4.30;;;;;;;;;;5018849;28;20192;-80
2024/02/18 08:54:08;;;;;;;9.10;3.90;;;;;;;;;;5034981;28;20198;-82
2024/02/18 08:56:34;;;;;;;10.93;4.43;;;;;;;;;;5037478;28;20225;-80
2024/02/18 08:58:59;;;;;;;13.02;4.65;;;;;;;;;;5033461;28;20205;-81
2024/02/18 09:01:25;;;;;;;11.90;3.97;;;;;;;;;;5033365;28;20194;-79
2024/02/18 09:03:50;;;;;;;8.60;4.07;;;;;;;;;;5038190;28;20190;-81
2024/02/18 09:06:16;;;;;;;12.00;4.40;;;;;;;;;;5037533;28;20593;-80
2024/02/18 09:08:42;;;;;;;9.98;4.38;;;;;;;;;;5036711;28;20200;-79
2024/02/18 09:11:07;;;;;;;8.95;4.32;;;;;;;;;;5034037;28;20193;-80
2024/02/18 09:13:33;;;;;;;9.60;4.28;;;;;;;;;;5033314;28;20198;-81
2024/02/18 09:15:58;;;;;;;10.75;4.22;;;;;;;;;;5046631;28;20189;-80
2024/02/18 09:18:24;;;;;;;8.32;3.90;;;;;;;;;;5034490;28;20256;-78
2024/02/18 09:20:49;;;;;;;10.23;4.10;;;;;;;;;;5026394;28;20193;-79
2024/02/18 09:23:16;;;;;;;11.48;5.13;;;;;;;;;;5034132;28;20240;-80
2024/02/18 09:25:42;;;;;;;10.32;4.20;;;;;;;;;;5033367;28;20205;-80
2024/02/18 09:28:08;;;;;;;11.27;4.75;;;;;;;;;;5031810;28;20202;-79
2024/02/18 09:30:35;;;;;;;8.48;4.15;;;;;;;;;;5029266;28;20228;-78
2024/02/18 09:33:00;;;;;;;11.82;4.50;;;;;;;;;;5012565;28;20267;-78
2024/02/18 09:35:27;;;;;;;11.50;3.88;;;;;;;;;;5032454;28;20198;-77
2024/02/18 09:37:52;;;;;;;8.32;4.10;;;;;;;;;;5029687;28;20213;-78
2024/02/18 09:40:18;;;;;;;10.93;4.70;;;;;;;;;;5034295;28;20178;-80
2024/02/18 09:42:44;;;;;;;9.45;3.65;;;;;;;;;;5033864;28;20205;-80
2024/02/18 09:45:11;;;;;;;12.70;4.28;;;;;;;;;;5032580;28;20182;-80
2024/02/18 09:47:40;;;;;;;9.93;4.32;;;;;;;;;;5031869;28;20225;-80
2024/02/18 09:50:09;;;;;;;13.00;5.50;;;;;;;;;;5029669;28;20213;-78
2024/02/18 09:52:38;;;;;;;11.30;4.00;;;;;;;;;;5043605;28;20198;-79
2024/02/18 09:55:06;;;;;;;12.68;4.57;;;;;;;;;;5017708;28;20253;-80
2024/02/18 09:57:32;;;;;;;9.52;3.80;;;;;;;;;;5039651;28;20181;-77
2024/02/18 09:59:57;;;;;;;12.70;4.10;;;;;;;;;;5034248;28;20234;-79
2024/02/18 10:02:24;;;;;;;9.98;4.30;;;;;;;;;;5014830;28;20304;-79
2024/02/18 10:04:49;;;;;;;6.70;4.13;;;;;;;;;;5037372;28;20255;-78
2024/02/18 10:07:15;;;;;;;11.05;4.03;;;;;;;;;;5040371;28;20684;-77
2024/02/18 10:09:43;;;;;;;12.27;3.80;;;;;;;;;;5018594;28;20651;-78
2024/02/18 10:12:10;;;;;;;9.27;3.95;;;;;;;;;;5049108;28;20192;-79
2024/02/18 10:14:36;;;;;;;12.05;3.90;;;;;;;;;;5038681;28;20268;-79
2024/02/18 10:17:01;;;;;;;14.88;4.13;;;;;;;;;;5052262;28;20213;-77
2024/02/18 10:19:27;;;;;;;9.13;4.57;;;;;;;;;;5032152;28;20495;-78
2024/02/18 10:21:53;;;;;;;11.27;4.90;;;;;;;;;;5027446;28;20184;-78
2024/02/18 10:24:24;;;;;;;8.35;3.90;;;;;;;;;;5043242;28;20268;-79
2024/02/18 10:26:51;;;;;;;11.00;3.90;;;;;;;;;;5035467;28;20223;-78
2024/02/18 10:29:16;;;;;;;6.30;3.65;;;;;;;;;;5026954;28;20190;-77
2024/02/18 10:31:42;;;;;;;10.05;3.85;;;;;;;;;;5029807;28;20198;-78
2024/02/18 10:34:07;;;;;;;8.63;3.60;;;;;;;;;;5042050;28;20181;-78
2024/02/18 10:36:35;;;;;;;7.45;3.60;;;;;;;;;;5025720;28;20565;-78
2024/02/18 10:39:03;;;;;;;10.60;3.72;;;;;;;;;;5030455;28;20716;-77
2024/02/18 10:41:44;;;;;;;9.32;3.75;;;;;;;;;;5022278;28;20212;-75
2024/02/18 10:44:20;;;;;;;8.18;3.28;;;;;;;;;;5031668;28;20193;-79
2024/02/18 10:46:48;;;;;;;10.32;3.40;;;;;;;;;;5038175;28;20285;-75
2024/02/18 10:49:44;;;;;;;7.97;3.45;;;;;;;;;;5035480;28;20255;-79
2024/02/18 10:52:44;;;;;;;8.50;3.60;;;;;;;;;;5020947;28;20221;-76
2024/02/18 10:55:20;;;;;;;8.20;3.55;;;;;;;;;;5030095;28;20682;-77
2024/02/18 10:58:21;;;;;;;6.38;3.60;;;;;;;;;;5032159;28;20819;-77
2024/02/18 11:00:49;;;;;;;10.70;3.22;;;;;;;;;;5020149;28;20182;-77
2024/02/18 11:03:32;;;;;;;7.93;2.95;;;;;;;;;;5041197;28;20560;-78
2024/02/18 11:05:59;;;;;;;9.95;3.47;;;;;;;;;;5012894;28;20244;-78
2024/02/18 11:08:28;;;;;;;10.48;2.85;;;;;;;;;;5010854;28;20214;-78
2024/02/18 11:10:54;;;;;;;7.00;2.75;;;;;;;;;;5036293;28;20186;-77
2024/02/18 11:13:21;;;;;;;6.13;2.90;;;;;;;;;;5034074;28;20549;-77
2024/02/18 11:15:47;;;;;;;7.05;2.90;;;;;;;;;;5030317;28;20179;-78
2024/02/18 11:18:14;;;;;;;8.90;3.17;;;;;;;;;;5024540;28;20226;-77
2024/02/18 11:20:40;;;;;;;12.15;3.30;;;;;;;;;;5033015;28;20189;-77
2024/02/18 11:23:06;;;;;;;9.25;3.20;;;;;;;;;;5028491;28;20193;-77
2024/02/18 11:25:31;;;;;;;8.07;3.22;;;;;;;;;;5041955;28;20209;-77
2024/02/18 11:27:57;;;;;;;5.90;3.05;;;;;;;;;;5024093;28;20746;-77
2024/02/18 11:30:23;;;;;;;4.85;2.72;;;;;;;;;;5039029;28;20610;-77
2024/02/18 11:32:49;;;;;;;6.35;3.28;;;;;;;;;;5030870;28;20708;-76
2024/02/18 11:35:17;;;;;;;7.45;3.42;;;;;;;;;;5037081;28;20208;-76
2024/02/18 11:37:43;;;;;;;7.05;3.67;;;;;;;;;;5030549;28;20237;-77
2024/02/18 11:40:18;;;;;;;7.57;3.28;;;;;;;;;;5024883;28;20185;-75
2024/02/18 11:42:45;;;;;;;6.47;3.13;;;;;;;;;;5044452;28;20196;-77
2024/02/18 11:45:15;;;;;;;7.93;3.20;;;;;;;;;;5024342;28;20228;-76
2024/02/18 11:47:44;;;;;;;7.25;3.05;;;;;;;;;;5047400;28;20658;-77
2024/02/18 11:50:10;;;;;;;6.28;3.22;;;;;;;;;;5020597;28;20218;-76
2024/02/18 11:52:37;;;;;;;5.53;3.22;;;;;;;;;;5043936;28;20182;-76
2024/02/18 11:55:15;;;;;;;10.32;3.63;;;;;;;;;;5039072;28;20717;-76
2024/02/18 11:57:41;;;;;;;6.18;3.33;;;;;;;;;;5042382;28;20590;-76
2024/02/18 12:00:16;;;;;;;12.90;3.45;;;;;;;;;;5033124;28;20675;-76
2024/02/18 12:02:48;;;;;;;7.72;3.00;;;;;;;;;;5033069;28;20185;-77
2024/02/18 12:05:14;;;;;;;6.22;2.85;;;;;;;;;;5035559;28;20248;-75
2024/02/18 12:07:40;;;;;;;5.43;3.22;;;;;;;;;;5038778;28;20308;-76
2024/02/18 12:10:06;;;;;;;5.60;2.95;;;;;;;;;;5035176;28;20269;-76
2024/02/18 12:12:31;;;;;;;10.50;3.03;;;;;;;;;;5040053;28;20727;-76
2024/02/18 12:14:57;;;;;;;9.15;2.95;;;;;;;;;;5047461;28;20181;-76
2024/02/18 12:17:24;;;;;;;9.32;3.50;;;;;;;;;;5031366;28;20235;-75
2024/02/18 12:19:53;;;;;;;10.95;3.50;;;;;;;;;;5028484;28;20557;-75
2024/02/18 12:22:28;;;;;;;10.73;4.05;;;;;;;;;;5026163;28;20190;-75
2024/02/18 12:24:56;;;;;;;5.95;3.25;;;;;;;;;;5028509;28;20189;-77
2024/02/18 12:27:22;;;;;;;6.93;3.05;;;;;;;;;;5030725;28;20310;-77
2024/02/18 12:29:49;;;;;;;8.02;3.42;;;;;;;;;;5023688;28;20596;-77
2024/02/18 12:32:15;;;;;;;5.82;3.40;;;;;;;;;;5039404;28;20648;-76
2024/02/18 12:34:48;;;;;;;9.35;3.90;;;;;;;;;;5039742;28;20197;-75
2024/02/18 12:37:14;;;;;;;4.50;3.42;;;;;;;;;;5030552;28;20208;-75
2024/02/18 12:39:40;;;;;;;9.32;3.42;;;;;;;;;;5031037;28;20226;-76
2024/02/18 12:42:06;;;;;;;7.28;3.33;;;;;;;;;;5038816;28;20302;-76
2024/02/18 12:44:34;;;;;;;12.25;4.30;;;;;;;;;;5040680;28;20192;-75
2024/02/18 12:47:00;;;;;;;9.10;3.63;;;;;;;;;;5027849;28;20226;-77
2024/02/18 12:49:30;;;;;;;11.73;3.70;;;;;;;;;;5031018;28;20196;-76
2024/02/18 12:52:06;;;;;;;9.05;3.80;;;;;;;;;;5032584;28;20223;-77
2024/02/18 12:54:32;;;;;;;9.88;4.25;;;;;;;;;;5038278;28;20267;-77
2024/02/18 12:56:58;;;;;;;8.82;3.70;;;;;;;;;;5029219;28;20182;-77
2024/02/18 12:59:24;;;;;;;10.60;4.22;;;;;;;;;;5030378;28;20269;-78
2024/02/18 13:01:49;;;;;;;7.90;4.18;;;;;;;;;;5029747;28;20209;-77
2024/02/18 13:04:15;;;;;;;7.28;4.32;;;;;;;;;;5031686;28;20641;-77
2024/02/18 13:06:42;;;;;;;9.98;4.75;;;;;;;;;;5024369;28;20657;-77
2024/02/18 13:09:08;;;;;;;6.28;4.07;;;;;;;;;;5038549;28;20225;-76
2024/02/18 13:11:33;;;;;;;9.43;4.43;;;;;;;;;;5027355;28;20183;-76
2024/02/18 13:14:01;;;;;;;13.00;5.00;;;;;;;;;;5013127;28;20194;-76
2024/02/18 13:16:27;;;;;;;7.80;4.10;;;;;;;;;;5032151;28;20188;-77
2024/02/18 13:18:54;;;;;;;7.28;4.53;;;;;;;;;;5028616;28;20229;-77
2024/02/18 13:21:21;;;;;;;11.23;4.53;;;;;;;;;;5031104;28;20250;-76
2024/02/18 13:23:47;;;;;;;12.70;4.93;;;;;;;;;;5032530;28;20664;-78
2024/02/18 13:26:12;;;;;;;9.48;4.45;;;;;;;;;;5035467;28;20208;-76
2024/02/18 13:28:38;;;;;;;15.05;5.30;;;;;;;;;;5029988;28;20354;-77
2024/02/18 13:31:08;;;;;;;13.32;4.95;;;;;;;;;;5032321;28;20283;-76
2024/02/18 13:33:33;;;;;;;11.52;4.90;;;;;;;;;;5029750;28;20672;-77
2024/02/18 13:35:59;;;;;;;15.18;5.70;;;;;;;;;;5016108;28;20277;-78
2024/02/18 13:38:24;;;;;;;8.77;4.53;;;;;;;;;;5034806;28;20289;-77
2024/02/18 13:40:50;;;;;;;10.05;4.78;;;;;;;;;;5037315;28;20201;-77
2024/02/18 13:43:15;;;;;;;12.48;5.60;;;;;;;;;;5031679;28;20186;-76
2024/02/18 13:45:42;;;;;;;11.50;5.28;;;;;;;;;;5016908;28;20255;-77
2024/02/18 13:48:07;;;;;;;10.65;5.10;;;;;;;;;;5034823;28;20328;-76
2024/02/18 13:50:33;;;;;;;10.35;4.93;;;;;;;;;;5029450;28;20194;-76
2024/02/18 13:52:59;;;;;;;7.93;5.20;;;;;;;;;;5034154;28;20214;-77
2024/02/18 13:55:24;;;;;;;11.82;5.68;;;;;;;;;;5031338;28;20189;-77
2024/02/18 13:57:50;;;;;;;11.05;5.45;;;;;;;;;;5026892;28;20724;-77
2024/02/18 14:00:15;;;;;;;12.13;5.97;;;;;;;;;;5033916;28;20194;-78
2024/02/18 14:02:41;;;;;;;13.55;5.90;;;;;;;;;;5036788;28;20193;-76
2024/02/18 14:05:09;;;;;;;10.27;4.72;;;;;;;;;;5039126;28;20911;-77
2024/02/18 14:07:35;;;;;;;10.68;5.00;;;;;;;;;;5049905;28;20557;-77
2024/02/18 14:10:00;;;;;;;9.20;5.20;;;;;;;;;;5042003;28;20236;-76
2024/02/18 14:12:26;;;;;;;10.43;5.30;;;;;;;;;;5046255;28;20254;-76
2024/02/18 14:14:52;;;;;;;8.88;4.93;;;;;;;;;;5018540;28;20239;-77
2024/02/18 14:17:18;;;;;;;10.68;5.13;;;;;;;;;;5038957;28;20187;-77
2024/02/18 14:19:44;;;;;;;9.40;4.88;;;;;;;;;;5031347;28;20230;-75
2024/02/18 14:22:10;;;;;;;8.48;4.75;;;;;;;;;;5028536;28;20194;-77
2024/02/18 14:24:35;;;;;;;10.40;4.70;;;;;;;;;;5033473;28;20468;-77
2024/02/18 14:27:02;;;;;;;6.78;5.22;;;;;;;;;;5017768;28;20233;-76